Latest Weather Observations for Cape Wessel

IDD60801

Issued at 12:05 pm CST Wednesday 30 July 2014 (issued every 30 minutes, with the page automatically refreshed every 10 minutes)

About weather observations | Map of weather stations | Latest weather observations for NT | Other Formats
Station Details ID: 200786 Name: CAPE WESSEL Lat: -11.00 Lon: 136.76 Height: 18.0 m
Data from the previous 72 hours. | See also: Recent months for locations in Northern Territory
Date/Time
CST
Temp
°C
App
Temp
°C
Dew
Point
Rel
Hum
%
Delta-T
°C
Wind Press
QNH
hPa
Press
MSL
hPa
Rain
since 9 am
mm
Dir
 
Spd
km/h
Gust
km/h
Spd
kts
Gust
kts
30/12:00pm 28.7 26.3 21.0 63 5.1 E 35 44 19 24 1014.4 1014.3 0.0
30/11:30am 28.9 26.4 20.9 62 5.3 E 35 44 19 24 1014.9 - 0.0
30/11:00am 28.7 26.6 21.0 63 5.1 E 33 43 18 23 1015.3 - 0.0
30/10:30am 28.1 26.1 21.1 65 4.7 E 33 41 18 22 1015.6 - 0.0
30/10:00am 28.3 27.2 21.8 68 4.4 E 30 37 16 20 1015.8 - 0.0
30/09:30am 27.4 25.5 21.4 70 4.0 E 33 41 18 22 1016.0 - 0.0
30/09:00am 27.1 25.2 22.1 74 3.4 E 35 43 19 23 1015.9 1015.8 0.0
30/08:30am 25.8 25.8 23.1 85 1.8 E 28 32 15 17 1015.8 - 0.0
30/08:00am 24.9 24.9 22.4 86 1.7 ESE 26 33 14 18 1015.4 - 0.0
30/07:30am 24.8 23.4 22.3 86 1.7 ESE 33 44 18 24 1015.2 - 0.0
30/07:00am 24.7 23.9 22.4 87 1.5 ESE 30 33 16 18 1014.9 - 0.0
30/06:30am 24.5 24.1 22.4 88 1.4 ESE 28 35 15 19 1014.6 - 0.0
30/06:00am 24.4 24.5 22.5 89 1.3 ESE 26 32 14 17 1014.4 1014.3 0.0
30/05:30am 24.2 24.1 22.3 89 1.3 SE 26 32 14 17 1014.3 - 0.0
30/05:00am 24.2 24.0 22.1 88 1.4 SE 26 32 14 17 1014.1 - 0.0
30/04:30am 24.4 24.8 22.5 89 1.3 SE 24 30 13 16 1014.1 - 0.0
30/04:00am 24.1 23.9 22.0 88 1.4 SE 26 32 14 17 1014.0 - 0.0
30/03:30am 24.2 24.1 22.3 89 1.3 SE 26 32 14 17 1014.0 - 0.0
30/03:00am 24.2 24.4 22.1 88 1.4 SE 24 32 13 17 1014.0 1013.9 0.0
30/02:30am 24.2 24.4 22.1 88 1.4 SE 24 30 13 16 1014.0 - 0.0
30/02:00am 24.2 24.4 22.1 88 1.4 SE 24 30 13 16 1014.1 - 0.0
30/01:00am 24.4 24.0 21.7 85 1.8 ESE 26 32 14 17 1014.7 - 0.0
30/12:30am 24.4 23.6 21.7 85 1.8 ESE 28 32 15 17 1014.9 - 0.0
30/12:00am 24.5 23.4 21.8 85 1.8 SE 30 35 16 19 1015.1 1015.0 0.0
 
Date/Time
CST
Temp
°C
App
Temp
°C
Dew
Point
Rel
Hum
%
Delta-T
°C
Wind Press
QNH
hPa
Press
MSL
hPa
Rain
since 9 am
mm
Dir
 
Spd
km/h
Gust
km/h
Spd
kts
Gust
kts
29/11:30pm 24.5 23.3 21.6 84 1.9 ESE 30 37 16 20 1015.1 - 0.0
29/11:00pm 24.6 23.1 21.7 84 1.9 ESE 32 37 17 20 1015.2 - 0.0
29/10:30pm 24.5 22.9 21.6 84 1.9 ESE 32 39 17 21 1015.4 - 0.0
29/10:00pm 24.7 23.6 22.4 87 1.5 ESE 32 39 17 21 1015.4 - 0.0
29/09:30pm 24.7 22.8 21.4 82 2.2 SE 33 41 18 22 1015.3 - 0.0
29/09:00pm 24.7 22.7 21.2 81 2.3 SE 33 39 18 21 1015.2 1015.1 0.0
29/08:30pm 24.9 22.7 21.4 81 2.3 ESE 35 41 19 22 1015.1 - 0.0
29/08:00pm 24.8 23.0 21.5 82 2.2 ESE 33 41 18 22 1015.0 - 0.0
29/07:30pm 24.9 22.5 21.0 79 2.6 ESE 35 43 19 23 1014.9 - 0.0
29/07:00pm 25.0 22.5 20.9 78 2.7 ESE 35 43 19 23 1014.6 - 0.0
29/06:30pm 25.0 22.8 20.7 77 2.8 ESE 33 41 18 22 1014.5 - 0.0
29/06:00pm 25.3 23.0 20.5 75 3.1 ESE 33 41 18 22 1014.3 1014.2 0.0
29/05:30pm 25.9 23.3 20.7 73 3.4 ESE 35 43 19 23 1014.0 - 0.0
29/05:00pm 26.5 23.7 21.0 72 3.6 ESE 37 44 20 24 1013.8 - 0.0
29/04:30pm 26.9 23.8 21.2 71 3.8 ESE 39 46 21 25 1013.4 - 0.0
29/04:00pm 27.3 24.6 21.3 69 4.0 ESE 37 46 20 25 1013.2 - 0.0
29/03:30pm 27.3 25.5 21.6 71 3.8 ESE 33 44 18 24 1013.2 - 0.0
29/03:00pm 27.2 25.0 20.8 68 4.2 ESE 33 43 18 23 1013.4 1013.3 0.0
29/02:30pm 28.9 27.3 21.9 66 4.7 ESE 33 43 18 23 1013.6 - 0.0
29/02:00pm 28.9 27.2 21.7 65 4.8 ESE 33 43 18 23 1013.9 - 0.0
29/01:30pm 28.8 26.0 21.0 62 5.2 ESE 37 46 20 25 1014.3 - 0.0
29/01:00pm 28.8 27.2 21.8 66 4.7 ESE 33 41 18 22 1014.8 - 0.0
29/12:30pm 29.0 27.5 22.0 66 4.7 ESE 33 41 18 22 1015.2 - 0.0
29/12:00pm 28.5 25.3 21.0 64 5.0 ESE 39 48 21 26 1015.5 1015.4 0.0
29/11:30am 28.5 25.9 21.5 66 4.7 E 37 48 20 26 1015.8 - 0.0
29/11:00am 28.3 26.3 21.8 68 4.4 ESE 35 43 19 23 1016.1 - 0.0
29/10:30am 28.2 26.4 22.2 70 4.0 ESE 35 46 19 25 1016.3 - 0.0
29/10:00am 26.7 24.2 21.7 74 3.3 ESE 37 46 20 25 1016.5 - 0.0
29/09:30am 26.8 24.4 21.8 74 3.3 E 37 50 20 27 1016.5 - 0.0
29/09:00am 27.0 25.8 23.3 80 2.5 E 35 44 19 24 1016.5 1016.4 0.0
29/08:30am 25.2 25.7 23.3 89 1.3 E 26 32 14 17 1016.3 - 0.0
29/08:00am 24.4 24.6 22.7 90 1.1 E 26 44 14 24 1015.9 - 0.0
29/07:30am 23.2 21.0 20.3 84 1.9 ESE 32 43 17 23 1015.5 - 0.0
29/07:19am 24.7 23.3 22.2 86 1.7 ESE 33 56 18 30 1015.5 - 0.0
29/07:00am 25.0 23.8 22.7 87 1.6 ESE 33 41 18 22 1015.2 - 0.0
29/06:30am 24.6 24.4 22.8 90 1.2 SE 28 37 15 20 1014.9 - 0.0
29/06:00am 24.5 23.7 22.4 88 1.4 SE 30 35 16 19 1014.6 1014.5 0.0
29/05:30am 24.5 24.1 22.4 88 1.4 SE 28 35 15 19 1014.4 - 0.0
29/05:00am 24.2 24.1 22.3 89 1.3 SE 26 33 14 18 1014.3 - 0.0
29/04:30am 24.2 24.0 22.1 88 1.4 SE 26 32 14 17 1014.2 - 0.0
29/04:00am 24.2 24.0 22.1 88 1.4 SE 26 32 14 17 1014.1 - 0.0
29/03:30am 24.3 24.1 22.0 87 1.5 SE 26 32 14 17 1014.2 - 0.0
29/03:00am 24.3 24.1 22.0 87 1.5 ESE 26 32 14 17 1014.2 1014.1 0.0
29/02:30am 24.4 23.8 21.9 86 1.7 ESE 28 33 15 18 1014.3 - 0.0
29/02:00am 24.8 24.3 22.1 85 1.8 SE 28 33 15 18 1014.6 - 0.0
29/01:30am 24.4 23.5 21.5 84 1.9 ESE 28 37 15 20 1014.8 - 0.0
29/01:00am 24.4 23.8 21.9 86 1.7 SE 28 33 15 18 1014.9 - 0.0
29/12:30am 24.5 23.8 21.8 85 1.8 ESE 28 35 15 19 1015.1 - 0.0
29/12:00am 24.6 23.4 21.5 83 2.1 ESE 30 37 16 20 1015.2 1015.1 0.0
 
Date/Time
CST
Temp
°C
App
Temp
°C
Dew
Point
Rel
Hum
%
Delta-T
°C
Wind Press
QNH
hPa
Press
MSL
hPa
Rain
since 9 am
mm
Dir
 
Spd
km/h
Gust
km/h
Spd
kts
Gust
kts
28/11:30pm 24.5 23.6 21.4 83 2.0 ESE 28 33 15 18 1015.4 - 0.0
28/11:00pm 24.6 24.1 21.5 83 2.1 ESE 26 33 14 18 1015.4 - 0.0
28/10:30pm 24.7 23.3 21.2 81 2.3 ESE 30 37 16 20 1015.5 - 0.0
28/10:00pm 24.9 23.1 21.2 80 2.4 ESE 32 39 17 21 1015.6 - 0.0
28/09:30pm 24.7 23.2 21.0 80 2.4 ESE 30 37 16 20 1015.7 - 0.0
28/09:00pm 24.7 23.2 21.0 80 2.4 ESE 30 39 16 21 1015.6 1015.5 0.0
28/08:30pm 25.0 23.3 21.3 80 2.4 ESE 32 39 17 21 1015.4 - 0.0
28/08:00pm 25.0 23.7 21.3 80 2.4 ESE 30 39 16 21 1015.1 - 0.0
28/07:30pm 24.9 22.9 20.8 78 2.7 ESE 32 43 17 23 1014.7 - 0.0
28/07:00pm 25.0 22.9 20.9 78 2.7 ESE 33 39 18 21 1014.1 - 0.0
28/06:30pm 24.9 22.2 20.4 76 2.9 ESE 35 43 19 23 1013.5 - 0.0
28/06:00pm 25.1 22.6 20.1 74 3.2 ESE 33 43 18 23 1013.1 1013.0 0.0
28/05:30pm 25.8 23.4 20.4 72 3.5 ESE 33 41 18 22 1012.9 - 0.0
28/05:00pm 26.3 23.5 20.2 69 4.0 ESE 35 44 19 24 1012.8 - 0.0
28/04:30pm 27.0 24.7 20.6 68 4.2 ESE 33 41 18 22 1012.6 - 0.0
28/04:00pm 27.2 24.8 20.3 66 4.5 ESE 33 41 18 22 1012.7 - 0.0
28/03:30pm 27.8 25.8 21.1 67 4.4 ESE 33 41 18 22 1012.7 - 0.0
28/03:00pm 28.0 25.9 20.6 64 4.9 ESE 32 39 17 21 1012.9 1012.8 0.0
28/02:30pm 28.6 26.8 21.1 64 5.0 ESE 32 41 17 22 1013.3 - 0.0
28/02:00pm 28.6 26.3 20.6 62 5.3 ESE 33 39 18 21 1013.6 - 0.0
28/01:30pm 29.1 27.1 21.1 62 5.3 ESE 33 41 18 22 1013.9 - 0.0
28/01:00pm 29.3 27.7 21.5 63 5.2 ESE 32 39 17 21 1014.3 - 0.0
28/12:30pm 28.9 26.5 21.1 62 5.2 ESE 35 43 19 23 1014.9 - 0.0
28/12:00pm 28.6 26.7 20.9 63 5.1 ESE 32 41 17 22 1015.3 1015.2 0.0
28/11:30am 28.3 25.4 20.8 63 5.0 E 37 44 20 24 1015.8 - 0.0
28/11:00am 28.4 26.1 21.2 65 4.8 E 35 43 19 23 1016.1 - 0.0
28/10:30am 28.3 26.3 21.8 68 4.4 E 35 44 19 24 1016.3 - 0.0
28/10:00am 27.4 25.6 22.3 73 3.4 E 35 46 19 25 1016.4 - 0.0
28/09:30am 27.2 25.6 23.2 79 2.7 E 37 46 20 25 1016.2 - 0.0
28/09:00am 25.8 27.3 25.5 98 0.2 ESE 28 39 15 21 1016.0 1015.9 0.6
28/08:30am 24.8 25.7 23.9 95 0.6 ESE 26 33 14 18 1015.7 - 0.6
28/08:00am 23.7 23.9 22.7 94 0.7 ESE 26 32 14 17 1015.4 - 0.6
28/07:30am 23.9 24.6 23.6 98 0.2 SE 26 33 14 18 1015.2 - 0.4
28/07:00am 24.0 23.2 23.0 94 0.7 SE 32 41 17 22 1014.9 - 0.2
28/06:30am 23.8 23.3 22.9 95 0.6 SE 30 39 16 21 1014.6 - 0.2
28/06:00am 23.7 23.4 22.5 93 0.8 SE 28 35 15 19 1014.5 1014.4 0.0
28/05:30am 24.2 22.8 22.3 89 1.3 SE 33 43 18 23 1014.1 - 0.0
28/05:00am 24.4 23.6 22.3 88 1.4 SE 30 35 16 19 1013.8 - 0.0
28/04:30am 23.9 22.8 21.8 88 1.4 SE 30 37 16 20 1013.7 - 0.0
28/04:00am 24.3 22.8 21.8 86 1.7 SE 32 41 17 22 1013.8 - 0.0
28/03:30am 23.9 22.9 21.2 85 1.8 SSE 28 35 15 19 1013.7 - 0.0
28/03:00am 24.4 24.0 21.7 85 1.8 SSE 26 33 14 18 1013.8 1013.7 0.0
28/02:30am 24.4 23.4 21.3 83 2.0 SE 28 33 15 18 1014.2 - 0.0
28/02:00am 24.3 22.9 21.2 83 2.0 SE 30 37 16 20 1014.6 - 0.0
28/01:30am 24.3 23.1 20.8 81 2.3 SSE 28 35 15 19 1014.7 - 0.0
28/01:00am 24.3 22.8 21.0 82 2.2 SE 30 35 16 19 1015.1 - 0.0
28/12:30am 24.3 22.3 20.8 81 2.3 SE 32 39 17 21 1015.4 - 0.0
28/12:00am 24.3 22.4 21.0 82 2.2 SE 32 39 17 21 1015.3 1015.2 0.0
 
Date/Time
CST
Temp
°C
App
Temp
°C
Dew
Point
Rel
Hum
%
Delta-T
°C
Wind Press
QNH
hPa
Press
MSL
hPa
Rain
since 9 am
mm
Dir
 
Spd
km/h
Gust
km/h
Spd
kts
Gust
kts
27/11:30pm 24.5 22.6 21.4 83 2.0 SE 33 41 18 22 1015.5 - 0.0
27/11:00pm 24.5 22.3 21.4 83 2.0 SE 35 44 19 24 1015.6 - 0.0
27/10:30pm 24.5 22.3 21.4 83 2.0 ESE 35 43 19 23 1015.7 - 0.0
27/10:00pm 24.5 21.8 21.2 82 2.2 SE 37 43 20 23 1015.7 - 0.0
27/09:30pm 24.5 22.3 21.4 83 2.0 ESE 35 41 19 22 1015.7 - 0.0
27/09:00pm 24.7 22.6 21.6 83 2.1 ESE 35 43 19 23 1015.7 1015.6 0.0
27/08:30pm 24.7 22.5 21.4 82 2.2 ESE 35 44 19 24 1015.6 - 0.0
27/08:00pm 24.8 22.6 21.5 82 2.2 ESE 35 44 19 24 1015.5 - 0.0
27/07:30pm 24.7 22.8 21.4 82 2.2 SE 33 43 18 23 1015.0 - 0.0
27/07:00pm 24.8 22.8 21.1 80 2.4 SE 33 44 18 24 1014.8 - 0.0
27/06:30pm 24.8 22.3 20.9 79 2.6 SE 35 44 19 24 1014.5 - 0.0
27/06:00pm 25.3 22.9 21.0 77 2.8 SE 35 43 19 23 1014.1 1014.0 0.0
27/05:30pm 25.8 23.3 20.8 74 3.3 SE 35 43 19 23 1013.8 - 0.0
27/05:00pm 26.5 24.1 21.0 72 3.6 SE 35 41 19 22 1013.5 - 0.0
27/04:30pm 27.0 24.6 21.1 70 3.9 SE 35 44 19 24 1013.2 - 0.0
27/04:00pm 27.3 25.3 21.1 69 4.1 SE 33 39 18 21 1013.2 - 0.0
27/03:30pm 28.2 26.7 21.7 68 4.4 ESE 32 39 17 21 1013.4 - 0.0
27/03:00pm 28.4 26.7 21.7 67 4.5 ESE 33 41 18 22 1013.5 1013.4 0.0
27/02:30pm 28.7 27.1 21.5 65 4.8 ESE 32 39 17 21 1013.7 - 0.0
27/02:00pm 28.9 27.2 21.4 64 5.0 ESE 32 39 17 21 1014.0 - 0.0
27/01:30pm 29.1 27.5 21.6 64 5.0 ESE 32 39 17 21 1014.5 - 0.0
27/01:00pm 29.5 29.0 22.2 65 4.9 ESE 28 39 15 21 1015.0 - 0.0
27/12:30pm 29.0 27.3 21.7 64 4.9 ESE 33 41 18 22 1015.5 - 0.0

Other Formats:

Comma delimited format used in spreadsheet applications
http://www.bom.gov.au/fwo/IDD60801/IDD60801.94147.axf

JavaScript Object Notation format (JSON) in row-major order
http://www.bom.gov.au/fwo/IDD60801/IDD60801.94147.json